createdAt,value
2023-05-10T00:02:16.898Z,100584.81
2023-05-10T00:04:43.559Z,100587.22
2023-05-10T00:07:11.324Z,100591.06
2023-05-10T00:09:37.923Z,100589.34
2023-05-10T00:12:04.745Z,100594.16
2023-05-10T00:14:31.408Z,100593.56
2023-05-10T00:16:58.032Z,100591.16
2023-05-10T00:19:25.211Z,100591.16
2023-05-10T00:21:51.779Z,100586.19
2023-05-10T00:24:18.327Z,100585.75
2023-05-10T00:26:44.909Z,100585.63
2023-05-10T00:29:11.510Z,100583.91
2023-05-10T00:31:38.084Z,100588.59
2023-05-10T00:34:04.677Z,100578.34
2023-05-10T00:36:32.269Z,100575.09
2023-05-10T00:38:59.021Z,100575.06
2023-05-10T00:41:25.627Z,100572.63
2023-05-10T00:43:52.241Z,100580.25
2023-05-10T00:46:19.332Z,100572.34
2023-05-10T00:48:46.337Z,100579.66
2023-05-10T00:51:13.935Z,100576.38
2023-05-10T00:53:41.526Z,100576.09
2023-05-10T00:56:08.205Z,100575.13
2023-05-10T00:58:34.950Z,100574.97
2023-05-10T01:01:02.314Z,100575.56
2023-05-10T01:03:29.337Z,100579.53
2023-05-10T01:05:56.288Z,100574.69
2023-05-10T01:08:23.006Z,100564.03
2023-05-10T01:10:53.576Z,100571.41
2023-05-10T01:13:41.914Z,100574.38
2023-05-10T01:16:08.776Z,100568.25
2023-05-10T01:18:39.462Z,100570.50
2023-05-10T01:21:16.205Z,100568.22
2023-05-10T01:24:14.603Z,100569.47
2023-05-10T01:27:11.929Z,100561.81
2023-05-10T01:30:16.287Z,100565.63
2023-05-10T01:33:09.157Z,100561.81
2023-05-10T01:35:43.785Z,100562.06
2023-05-10T01:38:19.192Z,100565.16
2023-05-10T01:40:45.595Z,100563.72
2023-05-10T01:43:20.657Z,100558.72
2023-05-10T01:45:56.842Z,100555.84
2023-05-10T01:48:25.724Z,100557.81
2023-05-10T01:50:53.140Z,100564.41
2023-05-10T01:53:21.519Z,100552.66
2023-05-10T01:55:51.824Z,100561.59
2023-05-10T01:58:23.788Z,100553.63
2023-05-10T02:00:53.301Z,100547.41
2023-05-10T02:03:23.211Z,100542.16
2023-05-10T02:05:51.919Z,100550.25
2023-05-10T02:08:20.080Z,100543.28
2023-05-10T02:10:47.519Z,100535.59
2023-05-10T02:13:17.253Z,100543.94
2023-05-10T02:15:46.311Z,100543.09
2023-05-10T02:18:14.708Z,100532.84
2023-05-10T02:20:42.831Z,100536.25
2023-05-10T02:23:10.853Z,100534.41
2023-05-10T02:25:39.711Z,100528.53
2023-05-10T02:28:08.404Z,100536.91
2023-05-10T02:30:35.826Z,100534.81
2023-05-10T02:33:05.223Z,100540.56
2023-05-10T02:35:34.399Z,100532.66
2023-05-10T02:38:02.029Z,100533.22
2023-05-10T02:40:29.602Z,100532.72
2023-05-10T02:42:57.898Z,100542.22
2023-05-10T02:45:29.088Z,100526.06
2023-05-10T02:47:56.735Z,100538.28
2023-05-10T02:50:25.886Z,100536.28
2023-05-10T02:52:55.545Z,100537.16
2023-05-10T02:55:33.339Z,100536.16
2023-05-10T02:58:01.981Z,100530.06
2023-05-10T03:00:29.025Z,100540.09
2023-05-10T03:02:55.948Z,100539.28
2023-05-10T03:05:22.764Z,100536.97
2023-05-10T03:07:49.537Z,100539.94
2023-05-10T03:10:16.795Z,100540.94
2023-05-10T03:13:26.112Z,100535.91
2023-05-10T03:16:00.221Z,100535.75
2023-05-10T03:18:34.817Z,100540.69
2023-05-10T03:21:08.209Z,100538.22
2023-05-10T03:23:44.331Z,100538.03
2023-05-10T03:26:15.672Z,100534.75
2023-05-10T03:28:42.835Z,100536.84
2023-05-10T03:31:10.187Z,100535.16
2023-05-10T03:33:36.800Z,100539.94
2023-05-10T03:36:03.596Z,100530.41
2023-05-10T03:38:30.720Z,100536.91
2023-05-10T03:40:57.342Z,100536.78
2023-05-10T03:43:23.935Z,100543.88
2023-05-10T03:45:50.581Z,100538.63
2023-05-10T03:48:17.130Z,100535.34
2023-05-10T03:50:43.938Z,100536.84
2023-05-10T03:53:10.608Z,100538.81
2023-05-10T03:55:37.567Z,100539.53
2023-05-10T03:58:04.268Z,100537.69
2023-05-10T04:00:31.186Z,100538.09
2023-05-10T04:02:57.905Z,100533.81
2023-05-10T04:05:24.755Z,100537.25
2023-05-10T04:07:52.179Z,100533.69
2023-05-10T04:10:19.052Z,100533.69
2023-05-10T04:12:45.849Z,100541.03
2023-05-10T04:15:12.518Z,100529.88
2023-05-10T04:17:39.163Z,100528.06
2023-05-10T04:20:06.496Z,100527.91
2023-05-10T04:22:33.400Z,100537.56
2023-05-10T04:25:00.016Z,100539.25
2023-05-10T04:27:26.637Z,100543.69
2023-05-10T04:29:53.205Z,100539.13
2023-05-10T04:32:20.163Z,100543.41
2023-05-10T04:34:47.017Z,100542.88
2023-05-10T04:37:13.600Z,100544.06
2023-05-10T04:39:42.192Z,100548.31
2023-05-10T04:42:09.251Z,100541.69
2023-05-10T04:44:36.381Z,100541.28
2023-05-10T04:47:03.927Z,100538.84
2023-05-10T04:49:30.921Z,100542.59
2023-05-10T04:51:57.546Z,100541.31
2023-05-10T04:54:24.218Z,100541.63
2023-05-10T04:56:50.804Z,100545.91
2023-05-10T04:59:17.404Z,100540.25
2023-05-10T05:01:44.317Z,100534.47
2023-05-10T05:04:10.922Z,100540.16
2023-05-10T05:06:37.653Z,100541.34
2023-05-10T05:09:04.301Z,100541.63
2023-05-10T05:11:31.004Z,100540.13
2023-05-10T05:13:59.897Z,100544.09
2023-05-10T05:16:26.965Z,100548.94
2023-05-10T05:18:53.545Z,100541.53
2023-05-10T05:21:21.070Z,100547.53
2023-05-10T05:23:47.634Z,100545.25
2023-05-10T05:26:14.237Z,100546.81
2023-05-10T05:28:40.887Z,100547.44
2023-05-10T05:31:08.724Z,100554.97
2023-05-10T05:33:35.865Z,100559.81
2023-05-10T05:36:04.299Z,100557.53
2023-05-10T05:38:31.084Z,100554.69
2023-05-10T05:40:58.144Z,100564.22
2023-05-10T05:43:24.783Z,100562.78
2023-05-10T05:45:54.172Z,100564.78
2023-05-10T05:48:21.098Z,100562.38
2023-05-10T05:50:47.658Z,100566.34
2023-05-10T05:53:14.281Z,100574.88
2023-05-10T05:55:41.059Z,100570.47
2023-05-10T05:58:07.698Z,100571.38
2023-05-10T06:00:34.348Z,100576.34
2023-05-10T06:03:00.949Z,100576.63
2023-05-10T06:05:27.714Z,100571.09
2023-05-10T06:07:54.510Z,100568.66
2023-05-10T06:10:21.038Z,100570.78
2023-05-10T06:12:47.784Z,100582.16
2023-05-10T06:15:14.653Z,100572.47
2023-05-10T06:17:41.483Z,100580.84
2023-05-10T06:20:08.685Z,100573.16
2023-05-10T06:22:35.555Z,100574.53
2023-05-10T06:25:03.007Z,100583.47
2023-05-10T06:27:32.577Z,100584.72
2023-05-10T06:30:11.934Z,100581.59
2023-05-10T06:32:39.840Z,100570.94
2023-05-10T06:35:06.935Z,100577.75
2023-05-10T06:37:33.514Z,100581.00
2023-05-10T06:40:00.279Z,100575.25
2023-05-10T06:42:28.061Z,100590.03
2023-05-10T06:44:54.608Z,100574.97
2023-05-10T06:47:21.170Z,100581.78
2023-05-10T06:49:47.818Z,100572.34
2023-05-10T06:52:14.403Z,100574.03
2023-05-10T06:54:40.946Z,100567.84
2023-05-10T06:57:15.967Z,100570.47
2023-05-10T06:59:50.278Z,100571.94
2023-05-10T07:02:16.999Z,100569.84
2023-05-10T07:04:43.641Z,100567.25
2023-05-10T07:07:10.289Z,100560.72
2023-05-10T07:09:36.895Z,100562.66
2023-05-10T07:12:03.845Z,100557.69
2023-05-10T07:14:30.483Z,100571.84
2023-05-10T07:16:57.149Z,100556.81
2023-05-10T07:19:24.120Z,100559.34
2023-05-10T07:21:51.829Z,100563.31
2023-05-10T07:24:18.682Z,100562.19
2023-05-10T07:26:45.321Z,100553.44
2023-05-10T07:29:11.898Z,100560.50
2023-05-10T07:31:38.680Z,100556.56
2023-05-10T07:34:05.702Z,100553.41
2023-05-10T07:36:32.373Z,100545.00
2023-05-10T07:38:58.951Z,100543.41
2023-05-10T07:41:27.865Z,100549.25
2023-05-10T07:43:54.464Z,100547.41
2023-05-10T07:46:21.228Z,100547.97
2023-05-10T07:48:47.883Z,100552.91
2023-05-10T07:51:14.695Z,100547.31
2023-05-10T07:53:41.517Z,100544.22
2023-05-10T07:56:32.685Z,100542.38
2023-05-10T07:59:00.811Z,100552.88
2023-05-10T08:01:32.890Z,100551.19
2023-05-10T08:03:59.542Z,100546.28
2023-05-10T08:06:29.048Z,100553.75
2023-05-10T08:08:55.733Z,100547.44
2023-05-10T08:11:22.465Z,100552.69
2023-05-10T08:13:50.793Z,100551.50
2023-05-10T08:16:18.327Z,100545.03
2023-05-10T08:18:46.806Z,100541.75
2023-05-10T08:21:14.501Z,100549.44
2023-05-10T08:23:41.692Z,100544.97
2023-05-10T08:26:08.279Z,100539.91
2023-05-10T08:28:34.875Z,100536.00
2023-05-10T08:31:01.575Z,100546.16
2023-05-10T08:33:28.185Z,100538.19
2023-05-10T08:35:54.788Z,100538.00
2023-05-10T08:38:21.589Z,100550.00
2023-05-10T08:40:51.805Z,100541.88
2023-05-10T08:43:19.228Z,100545.56
2023-05-10T08:45:48.690Z,100538.47
2023-05-10T08:48:17.490Z,100534.13
2023-05-10T08:50:46.002Z,100548.66
2023-05-10T08:53:14.098Z,100543.25
2023-05-10T08:55:43.068Z,100538.94
2023-05-10T08:58:10.374Z,100541.50
2023-05-10T09:00:38.307Z,100546.28
2023-05-10T09:03:06.592Z,100541.00
2023-05-10T09:05:33.625Z,100543.72
2023-05-10T09:08:01.630Z,100544.22
2023-05-10T09:10:29.786Z,100542.81
2023-05-10T09:12:59.718Z,100529.50
2023-05-10T09:15:26.884Z,100536.22
2023-05-10T09:17:53.940Z,100537.19
2023-05-10T09:20:20.697Z,100545.50
2023-05-10T09:22:47.568Z,100535.38
2023-05-10T09:25:16.611Z,100529.88
2023-05-10T09:27:47.892Z,100531.69
2023-05-10T09:30:28.647Z,100525.22
2023-05-10T09:32:56.986Z,100513.91
2023-05-10T09:35:29.299Z,100521.91
2023-05-10T09:37:58.272Z,100516.00
2023-05-10T09:40:26.290Z,100522.97
2023-05-10T09:43:00.449Z,100522.41
2023-05-10T09:45:29.063Z,100519.13
2023-05-10T09:47:56.656Z,100511.16
2023-05-10T09:50:23.968Z,100526.03
2023-05-10T09:53:01.218Z,100526.59
2023-05-10T09:55:41.347Z,100519.94
2023-05-10T09:58:11.492Z,100511.94
2023-05-10T10:00:43.592Z,100506.28
2023-05-10T10:03:21.050Z,100513.59
2023-05-10T10:05:49.396Z,100501.50
2023-05-10T10:08:16.871Z,100485.31
2023-05-10T10:10:46.926Z,100491.78
2023-05-10T10:13:14.602Z,100495.09
2023-05-10T10:15:43.108Z,100493.50
2023-05-10T10:18:14.295Z,100485.94
2023-05-10T10:20:41.346Z,100488.13
2023-05-10T10:23:09.327Z,100489.53
2023-05-10T10:25:36.586Z,100483.25
2023-05-10T10:28:27.539Z,100476.25
2023-05-10T10:30:57.256Z,100477.66
2023-05-10T10:33:29.768Z,100478.50
2023-05-10T10:35:59.923Z,100470.56
2023-05-10T10:38:26.531Z,100479.47
2023-05-10T10:41:04.123Z,100477.56
2023-05-10T10:43:31.360Z,100473.34
2023-05-10T10:46:15.673Z,100479.28
2023-05-10T10:48:48.046Z,100475.34
2023-05-10T10:51:15.393Z,100471.75
2023-05-10T10:53:42.264Z,100466.44
2023-05-10T10:56:11.621Z,100469.75
2023-05-10T10:58:39.319Z,100467.28
2023-05-10T11:01:14.779Z,100451.59
2023-05-10T11:03:42.488Z,100450.56
2023-05-10T11:06:09.304Z,100456.84
2023-05-10T11:08:44.383Z,100451.56
2023-05-10T11:11:15.060Z,100453.34
2023-05-10T11:13:51.228Z,100446.88
2023-05-10T11:16:20.539Z,100443.56
2023-05-10T11:18:59.326Z,100446.06
2023-05-10T11:21:26.077Z,100443.81
2023-05-10T11:23:57.436Z,100436.88
2023-05-10T11:26:32.443Z,100439.97
2023-05-10T11:29:02.847Z,100434.50
2023-05-10T11:31:30.405Z,100428.69
2023-05-10T11:33:59.297Z,100425.03
2023-05-10T11:36:33.528Z,100427.38
2023-05-10T11:39:00.389Z,100427.34
2023-05-10T11:41:31.496Z,100418.53
2023-05-10T11:43:59.072Z,100426.97
2023-05-10T11:46:27.999Z,100418.94
2023-05-10T11:48:58.883Z,100417.06
2023-05-10T11:51:26.412Z,100417.91
2023-05-10T11:53:57.425Z,100416.91
2023-05-10T11:56:24.588Z,100418.53
2023-05-10T11:58:58.814Z,100418.97
2023-05-10T12:01:25.989Z,100417.94
2023-05-10T12:03:55.044Z,100421.13
2023-05-10T12:06:22.647Z,100416.09
2023-05-10T12:08:56.256Z,100410.63
2023-05-10T12:11:26.752Z,100415.66
2023-05-10T12:13:54.126Z,100421.75
2023-05-10T12:16:22.805Z,100419.19
2023-05-10T12:18:50.673Z,100418.16
2023-05-10T12:21:17.439Z,100423.84
2023-05-10T12:23:47.082Z,100413.28
2023-05-10T12:26:13.974Z,100409.72
2023-05-10T12:28:40.696Z,100408.84
2023-05-10T12:31:08.006Z,100417.91
2023-05-10T12:33:45.574Z,100412.25
2023-05-10T12:36:14.659Z,100406.28
2023-05-10T12:38:49.065Z,100402.75
2023-05-10T12:41:19.758Z,100389.97
2023-05-10T12:43:46.592Z,100395.66
2023-05-10T12:46:15.396Z,100388.25
2023-05-10T12:48:43.986Z,100383.59
2023-05-10T12:51:12.861Z,100380.84
2023-05-10T12:53:41.800Z,100395.16
2023-05-10T12:56:10.958Z,100385.09
2023-05-10T12:58:37.587Z,100383.63
2023-05-10T13:01:05.741Z,100374.56
2023-05-10T13:03:32.622Z,100376.28
2023-05-10T13:05:59.297Z,100364.47
2023-05-10T13:08:26.028Z,100359.50
2023-05-10T13:10:53.101Z,100359.38
2023-05-10T13:13:19.671Z,100365.25
2023-05-10T13:15:46.235Z,100350.94
2023-05-10T13:18:12.869Z,100349.47
2023-05-10T13:20:39.517Z,100358.47
2023-05-10T13:23:06.091Z,100344.19
2023-05-10T13:25:32.705Z,100347.38
2023-05-10T13:27:59.268Z,100347.09
2023-05-10T13:30:26.169Z,100338.81
2023-05-10T13:32:52.817Z,100335.38
2023-05-10T13:35:19.446Z,100343.00
2023-05-10T13:37:46.004Z,100331.28
2023-05-10T13:40:12.870Z,100324.84
2023-05-10T13:42:39.492Z,100339.59
2023-05-10T13:45:06.897Z,100338.56
2023-05-10T13:47:33.511Z,100332.22
2023-05-10T13:50:00.224Z,100331.38
2023-05-10T13:52:27.368Z,100335.19
2023-05-10T13:54:56.002Z,100332.84
2023-05-10T13:57:24.102Z,100319.59
2023-05-10T13:59:51.253Z,100326.75
2023-05-10T14:02:17.993Z,100317.88
2023-05-10T14:04:44.588Z,100305.88
2023-05-10T14:07:11.175Z,100308.63
2023-05-10T14:09:37.788Z,100308.44
2023-05-10T14:12:04.638Z,100311.13
2023-05-10T14:14:31.303Z,100307.22
2023-05-10T14:16:58.041Z,100301.38
2023-05-10T14:19:24.599Z,100301.34
2023-05-10T14:21:53.000Z,100302.16
2023-05-10T14:24:19.586Z,100299.09
2023-05-10T14:26:46.277Z,100290.81
2023-05-10T14:29:13.047Z,100293.38
2023-05-10T14:31:39.823Z,100296.63
2023-05-10T14:34:06.718Z,100286.91
2023-05-10T14:36:34.575Z,100287.63
2023-05-10T14:39:01.122Z,100289.00
2023-05-10T14:41:27.710Z,100289.72
2023-05-10T14:43:54.300Z,100286.91
2023-05-10T14:46:21.177Z,100286.88
2023-05-10T14:48:47.742Z,100286.19
2023-05-10T14:51:14.455Z,100288.78
2023-05-10T14:53:41.141Z,100278.69
2023-05-10T14:56:08.079Z,100277.53
2023-05-10T14:58:34.802Z,100285.63
2023-05-10T15:01:01.824Z,100280.38
2023-05-10T15:03:29.108Z,100280.47
2023-05-10T15:05:57.175Z,100270.91
2023-05-10T15:08:24.765Z,100277.38
2023-05-10T15:10:52.062Z,100281.53
2023-05-10T15:13:18.645Z,100289.59
2023-05-10T15:15:45.294Z,100271.31
2023-05-10T15:18:11.899Z,100269.88
2023-05-10T15:20:38.588Z,100277.84
2023-05-10T15:23:05.165Z,100282.91
2023-05-10T15:25:32.151Z,100279.47
2023-05-10T15:27:58.707Z,100288.19
2023-05-10T15:30:25.369Z,100285.34
2023-05-10T15:32:52.220Z,100288.59
2023-05-10T15:35:19.495Z,100301.03
2023-05-10T15:37:48.452Z,100296.81
2023-05-10T15:40:15.233Z,100292.06
2023-05-10T15:42:41.946Z,100287.25
2023-05-10T15:45:09.126Z,100279.03
2023-05-10T15:47:35.731Z,100282.00
2023-05-10T15:50:02.422Z,100273.00
2023-05-10T15:52:29.098Z,100281.13
2023-05-10T15:54:55.706Z,100286.63
2023-05-10T15:57:22.295Z,100284.97
2023-05-10T15:59:49.230Z,100277.66
2023-05-10T16:02:17.599Z,100286.91
2023-05-10T16:04:44.912Z,100288.63
2023-05-10T16:07:11.468Z,100280.59
2023-05-10T16:09:38.058Z,100281.03
2023-05-10T16:12:05.000Z,100290.38
2023-05-10T16:14:31.790Z,100287.53
2023-05-10T16:16:58.628Z,100287.53
2023-05-10T16:19:25.941Z,100283.28
2023-05-10T16:21:53.812Z,100287.16
2023-05-10T16:24:20.501Z,100287.59
2023-05-10T16:26:47.136Z,100283.56
2023-05-10T16:29:13.747Z,100290.25
2023-05-10T16:31:40.333Z,100288.94
2023-05-10T16:34:06.939Z,100288.72
2023-05-10T16:36:33.987Z,100293.72
2023-05-10T16:39:00.877Z,100295.97
2023-05-10T16:41:27.459Z,100290.66
2023-05-10T16:43:57.125Z,100298.56
2023-05-10T16:46:23.780Z,100289.28
2023-05-10T16:48:50.392Z,100296.81
2023-05-10T16:51:17.116Z,100294.28
2023-05-10T16:53:43.885Z,100294.88
2023-05-10T16:56:10.588Z,100292.81
2023-05-10T16:58:37.505Z,100305.72
2023-05-10T17:01:04.190Z,100295.22
2023-05-10T17:03:31.079Z,100303.22
2023-05-10T17:05:58.984Z,100302.25
2023-05-10T17:08:25.595Z,100311.56
2023-05-10T17:10:52.154Z,100307.44
2023-05-10T17:13:18.829Z,100310.31
2023-05-10T17:15:47.400Z,100317.22
2023-05-10T17:18:14.062Z,100322.06
2023-05-10T17:20:43.278Z,100328.03
2023-05-10T17:23:09.824Z,100325.78
2023-05-10T17:25:36.841Z,100324.53
2023-05-10T17:28:03.890Z,100327.28
2023-05-10T17:30:32.702Z,100325.16
2023-05-10T17:33:00.235Z,100321.19
2023-05-10T17:35:27.109Z,100330.31
2023-05-10T17:37:54.309Z,100334.97
2023-05-10T17:40:21.017Z,100334.41
2023-05-10T17:42:47.824Z,100329.13
2023-05-10T17:45:15.018Z,100341.44
2023-05-10T17:47:41.767Z,100334.13
2023-05-10T17:50:10.167Z,100331.03
2023-05-10T17:52:37.058Z,100330.25
2023-05-10T17:55:03.852Z,100340.56
2023-05-10T17:57:30.898Z,100346.78
2023-05-10T17:59:57.481Z,100336.63
2023-05-10T18:02:24.046Z,100341.38
2023-05-10T18:04:50.770Z,100347.06
2023-05-10T18:07:17.401Z,100353.78
2023-05-10T18:09:43.956Z,100355.38
2023-05-10T18:12:10.599Z,100354.56
2023-05-10T18:14:41.073Z,100353.44
2023-05-10T18:17:09.323Z,100359.63
2023-05-10T18:19:36.136Z,100362.22
2023-05-10T18:22:02.876Z,100365.00
2023-05-10T18:26:59.044Z,100372.50
2023-05-10T18:29:25.961Z,100372.19
2023-05-10T18:31:52.578Z,100373.53
2023-05-10T18:34:19.342Z,100375.56
2023-05-10T18:36:46.244Z,100371.50
2023-05-10T18:39:13.304Z,100377.94
2023-05-10T18:41:40.201Z,100374.06
2023-05-10T18:44:06.962Z,100378.47
2023-05-10T18:46:33.769Z,100383.56
2023-05-10T18:49:00.352Z,100383.06
2023-05-10T18:51:29.602Z,100390.69
2023-05-10T18:53:56.117Z,100395.59
2023-05-10T18:56:23.755Z,100389.84
2023-05-10T18:58:50.357Z,100401.03
2023-05-10T19:01:16.979Z,100396.13
2023-05-10T19:03:43.550Z,100390.19
2023-05-10T19:06:11.481Z,100399.16
2023-05-10T19:08:38.013Z,100398.63
2023-05-10T19:11:04.569Z,100411.03
2023-05-10T19:13:31.135Z,100411.50
2023-05-10T19:16:12.770Z,100412.88
2023-05-10T19:18:40.226Z,100413.53
2023-05-10T19:21:07.831Z,100413.19
2023-05-10T19:23:35.234Z,100415.38
2023-05-10T19:26:02.079Z,100411.44
2023-05-10T19:28:28.680Z,100407.91
2023-05-10T19:30:55.343Z,100413.81
2023-05-10T19:33:22.012Z,100408.53
2023-05-10T19:35:55.142Z,100408.03
2023-05-10T19:38:25.802Z,100410.56
2023-05-10T19:40:58.057Z,100410.03
2023-05-10T19:43:29.011Z,100411.00
2023-05-10T19:45:59.204Z,100410.47
2023-05-10T19:48:26.151Z,100411.94
2023-05-10T19:51:01.293Z,100407.72
2023-05-10T19:53:28.269Z,100405.19
2023-05-10T19:55:55.551Z,100409.91
2023-05-10T19:58:23.459Z,100407.91
2023-05-10T20:00:50.093Z,100405.19
2023-05-10T20:03:16.836Z,100408.72
2023-05-10T20:05:43.491Z,100403.66
2023-05-10T20:08:10.059Z,100409.06
2023-05-10T20:10:36.641Z,100404.81
2023-05-10T20:13:03.242Z,100410.91
2023-05-10T20:15:30.064Z,100413.63
2023-05-10T20:17:56.696Z,100412.94
2023-05-10T20:20:23.673Z,100408.69
2023-05-10T20:22:50.626Z,100402.94
2023-05-10T20:25:18.334Z,100410.09
2023-05-10T20:27:45.366Z,100406.31
2023-05-10T20:30:12.523Z,100409.00
2023-05-10T20:32:39.548Z,100416.75
2023-05-10T20:35:07.162Z,100409.13
2023-05-10T20:37:33.707Z,100416.44
2023-05-10T20:40:00.310Z,100411.31
2023-05-10T20:42:27.101Z,100409.78
2023-05-10T20:44:53.750Z,100418.25
2023-05-10T20:47:20.476Z,100412.13
2023-05-10T20:49:47.106Z,100410.06
2023-05-10T20:52:13.928Z,100412.38
2023-05-10T20:54:40.728Z,100405.75
2023-05-10T20:57:07.513Z,100411.19
2023-05-10T20:59:34.312Z,100404.53
2023-05-10T21:02:01.291Z,100406.56
2023-05-10T21:04:28.022Z,100410.56
2023-05-10T21:06:56.134Z,100405.81
2023-05-10T21:09:22.927Z,100399.19
2023-05-10T21:11:50.882Z,100405.28
2023-05-10T21:14:17.485Z,100399.84
2023-05-10T21:16:44.152Z,100395.16
2023-05-10T21:19:12.006Z,100409.53
2023-05-10T21:21:38.643Z,100397.00
2023-05-10T21:24:05.863Z,100399.19
2023-05-10T21:26:32.570Z,100401.03
2023-05-10T21:28:59.360Z,100406.75
2023-05-10T21:31:26.108Z,100407.06
2023-05-10T21:33:52.753Z,100411.47
2023-05-10T21:36:19.444Z,100401.50
2023-05-10T21:38:46.682Z,100405.91
2023-05-10T21:41:13.293Z,100403.19
2023-05-10T21:43:39.872Z,100405.06
2023-05-10T21:46:07.446Z,100411.78
2023-05-10T21:48:34.077Z,100410.09
2023-05-10T21:51:01.642Z,100408.38
2023-05-10T21:53:28.989Z,100403.97
2023-05-10T21:55:56.338Z,100408.38
2023-05-10T21:58:23.197Z,100400.59
2023-05-10T22:00:49.975Z,100406.69
2023-05-10T22:03:16.669Z,100408.22
2023-05-10T22:05:43.560Z,100403.81
2023-05-10T22:08:10.101Z,100413.34
2023-05-10T22:10:36.688Z,100417.88
2023-05-10T22:13:05.370Z,100417.72
2023-05-10T22:15:34.215Z,100425.31
2023-05-10T22:18:02.431Z,100425.63
2023-05-10T22:20:29.191Z,100425.94
2023-05-10T22:22:56.069Z,100423.38
2023-05-10T22:25:22.801Z,100424.56
2023-05-10T22:27:49.386Z,100419.28
2023-05-10T22:30:16.515Z,100428.56
2023-05-10T22:32:43.463Z,100429.03
2023-05-10T22:35:10.050Z,100431.03
2023-05-10T22:37:36.603Z,100425.91
2023-05-10T22:40:03.946Z,100432.47
2023-05-10T22:42:30.525Z,100426.38
2023-05-10T22:44:57.210Z,100430.53
2023-05-10T22:47:23.764Z,100418.91
2023-05-10T22:49:50.394Z,100420.59
2023-05-10T22:52:16.949Z,100420.91
2023-05-10T22:54:44.287Z,100432.03
2023-05-10T22:57:11.322Z,100429.47
2023-05-10T22:59:37.901Z,100430.47
2023-05-10T23:02:04.675Z,100434.47
2023-05-10T23:04:31.346Z,100437.25
2023-05-10T23:06:57.963Z,100432.31
2023-05-10T23:09:24.600Z,100437.88
2023-05-10T23:11:51.191Z,100436.03
2023-05-10T23:14:17.760Z,100438.88
2023-05-10T23:16:44.420Z,100435.78
2023-05-10T23:19:11.197Z,100435.53
2023-05-10T23:21:37.977Z,100433.75
2023-05-10T23:24:04.965Z,100441.91
2023-05-10T23:26:31.614Z,100442.94
2023-05-10T23:28:58.178Z,100441.56
2023-05-10T23:31:24.823Z,100437.91
2023-05-10T23:33:51.405Z,100436.56
2023-05-10T23:36:19.596Z,100440.25
2023-05-10T23:38:46.257Z,100442.97
2023-05-10T23:41:13.057Z,100438.59
2023-05-10T23:43:39.693Z,100439.88
2023-05-10T23:46:06.574Z,100452.78
2023-05-10T23:48:33.179Z,100453.06
2023-05-10T23:50:59.802Z,100445.28
2023-05-10T23:53:26.478Z,100448.00
2023-05-10T23:55:53.059Z,100448.25
2023-05-10T23:58:19.689Z,100439.34
